Terminal Aerodrome Forecast
Issued by NWS

Home | Current Version | Previous Version | Text Only | Print | Product List | Glossary Off
Versions: 1 2 3 4 5 6 7 8 9 10 11 12

000
FTUS43 KMPX 162320
TAFAXN
TAF
KAXN 162320Z 1700/1724 23005KT P6SM SCT250
     FM170800 21009KT P6SM FEW250
     FM171900 23013KT P6SM SKC=

USA.gov is the U.S. government's official web portal to all federal, state and local government web resources and services.